createdAt,value
2023-04-21T00:00:16.662Z,8.00
2023-04-21T00:02:46.546Z,8.00
2023-04-21T00:05:15.295Z,8.00
2023-04-21T00:07:44.732Z,8.00
2023-04-21T00:10:13.283Z,7.90
2023-04-21T00:12:41.342Z,7.90
2023-04-21T00:15:10.426Z,7.80
2023-04-21T00:17:39.159Z,7.80
2023-04-21T00:20:10.628Z,7.80
2023-04-21T00:22:38.708Z,7.80
2023-04-21T00:25:09.100Z,7.70
2023-04-21T00:27:37.326Z,7.80
2023-04-21T00:30:06.894Z,7.70
2023-04-21T00:32:35.125Z,7.70
2023-04-21T00:35:03.259Z,7.70
2023-04-21T00:37:31.787Z,7.70
2023-04-21T00:39:59.829Z,7.70
2023-04-21T00:42:29.324Z,7.70
2023-04-21T00:44:57.410Z,7.70
2023-04-21T00:47:25.584Z,7.70
2023-04-21T00:49:53.793Z,7.70
2023-04-21T00:52:22.201Z,7.70
2023-04-21T00:54:50.887Z,7.70
2023-04-21T00:57:19.059Z,7.70
2023-04-21T00:59:51.625Z,7.60
2023-04-21T01:02:20.560Z,7.60
2023-04-21T01:04:49.378Z,7.60
2023-04-21T01:07:17.439Z,7.60
2023-04-21T01:09:45.467Z,7.60
2023-04-21T01:12:14.570Z,7.60
2023-04-21T01:14:43.037Z,7.60
2023-04-21T01:17:13.552Z,7.50
2023-04-21T01:19:43.693Z,7.50
2023-04-21T01:22:15.278Z,7.50
2023-04-21T01:24:45.394Z,7.50
2023-04-21T01:27:16.497Z,7.50
2023-04-21T01:29:46.660Z,7.50
2023-04-21T01:32:18.189Z,7.50
2023-04-21T01:34:47.320Z,7.50
2023-04-21T01:37:19.003Z,7.50
2023-04-21T01:39:52.049Z,7.50
2023-04-21T01:42:21.287Z,7.50
2023-04-21T01:44:49.730Z,7.50
2023-04-21T01:47:19.269Z,7.50
2023-04-21T01:49:47.568Z,7.40
2023-04-21T01:52:17.219Z,7.40
2023-04-21T01:54:46.853Z,7.40
2023-04-21T01:57:15.609Z,7.40
2023-04-21T01:59:43.801Z,7.40
2023-04-21T02:02:12.595Z,7.50
2023-04-21T02:04:40.834Z,7.40
2023-04-21T02:07:09.015Z,7.40
2023-04-21T02:09:38.424Z,7.40
2023-04-21T02:12:07.009Z,7.40
2023-04-21T02:14:35.116Z,7.40
2023-04-21T02:17:03.872Z,7.40
2023-04-21T02:19:32.276Z,7.40
2023-04-21T02:22:00.326Z,7.40
2023-04-21T02:24:28.428Z,7.40
2023-04-21T02:26:58.602Z,7.40
2023-04-21T02:29:29.599Z,7.40
2023-04-21T02:32:05.258Z,7.30
2023-04-21T02:34:42.933Z,7.30
2023-04-21T02:37:11.023Z,7.30
2023-04-21T02:39:39.068Z,7.30
2023-04-21T02:42:08.471Z,7.30
2023-04-21T02:44:38.632Z,7.40
2023-04-21T02:47:06.796Z,7.30
2023-04-21T02:49:34.837Z,7.40
2023-04-21T02:52:02.981Z,7.40
2023-04-21T02:54:31.014Z,7.30
2023-04-21T02:56:59.032Z,7.30
2023-04-21T02:59:29.055Z,7.30
2023-04-21T03:01:57.092Z,7.30
2023-04-21T03:04:25.512Z,7.30
2023-04-21T03:06:53.947Z,7.30
2023-04-21T03:09:22.023Z,7.20
2023-04-21T03:11:50.131Z,7.30
2023-04-21T03:14:19.953Z,7.30
2023-04-21T03:16:49.380Z,7.30
2023-04-21T03:19:17.709Z,7.20
2023-04-21T03:21:46.416Z,7.30
2023-04-21T03:24:14.609Z,7.30
2023-04-21T03:26:42.823Z,7.30
2023-04-21T03:29:10.875Z,7.30
2023-04-21T03:31:38.977Z,7.30
2023-04-21T03:34:09.199Z,7.30
2023-04-21T03:36:37.483Z,7.30
2023-04-21T03:39:18.796Z,7.30
2023-04-21T03:41:48.780Z,7.30
2023-04-21T03:44:16.790Z,7.30
2023-04-21T03:46:44.900Z,7.30
2023-04-21T03:49:14.272Z,7.30
2023-04-21T03:51:42.328Z,7.30
2023-04-21T03:54:10.370Z,7.30
2023-04-21T03:56:38.421Z,7.30
2023-04-21T03:59:06.721Z,7.30
2023-04-21T04:01:35.502Z,7.30
2023-04-21T04:04:03.944Z,7.20
2023-04-21T04:06:34.076Z,7.20
2023-04-21T04:09:04.480Z,7.30
2023-04-21T04:11:32.907Z,7.20
2023-04-21T04:14:01.311Z,7.30
2023-04-21T04:16:29.900Z,7.30
2023-04-21T04:18:58.317Z,7.30
2023-04-21T04:21:27.545Z,7.30
2023-04-21T04:23:57.571Z,7.30
2023-04-21T04:26:25.791Z,7.30
2023-04-21T04:28:56.191Z,7.20
2023-04-21T04:31:25.400Z,7.20
2023-04-21T04:33:55.534Z,7.20
2023-04-21T04:36:24.126Z,7.30
2023-04-21T04:38:52.424Z,7.30
2023-04-21T04:41:22.645Z,7.30
2023-04-21T04:43:51.093Z,7.40
2023-04-21T04:46:20.660Z,7.30
2023-04-21T04:48:49.162Z,7.30
2023-04-21T04:51:17.338Z,7.40
2023-04-21T04:53:45.392Z,7.40
2023-04-21T04:56:13.447Z,7.40
2023-04-21T04:58:42.846Z,7.50
2023-04-21T05:01:14.412Z,7.50
2023-04-21T05:03:43.030Z,7.50
2023-04-21T05:06:11.338Z,7.70
2023-04-21T05:08:40.237Z,7.80
2023-04-21T05:11:08.736Z,7.80
2023-04-21T05:13:39.607Z,8.00
2023-04-21T05:16:11.384Z,8.00
2023-04-21T05:18:39.602Z,8.00
2023-04-21T05:21:07.773Z,8.00
2023-04-21T05:23:35.812Z,8.10
2023-04-21T05:26:04.628Z,8.30
2023-04-21T05:28:33.238Z,8.30
2023-04-21T05:31:01.357Z,8.30
2023-04-21T05:33:32.001Z,8.40
2023-04-21T05:36:00.193Z,8.40
2023-04-21T05:38:31.284Z,8.50
2023-04-21T05:40:59.288Z,8.60
2023-04-21T05:43:27.428Z,8.60
2023-04-21T05:45:55.556Z,8.80
2023-04-21T05:48:24.408Z,8.90
2023-04-21T05:50:53.764Z,9.00
2023-04-21T05:53:23.423Z,9.10
2023-04-21T05:55:51.718Z,9.20
2023-04-21T05:58:19.761Z,9.30
2023-04-21T06:00:49.201Z,9.30
2023-04-21T06:03:17.700Z,9.50
2023-04-21T06:05:46.046Z,9.60
2023-04-21T06:08:15.522Z,9.80
2023-04-21T06:10:43.547Z,9.90
2023-04-21T06:13:11.530Z,10.10
2023-04-21T06:15:39.624Z,10.10
2023-04-21T06:18:07.801Z,10.20
2023-04-21T06:20:36.013Z,10.40
2023-04-21T06:23:04.535Z,10.50
2023-04-21T06:25:33.998Z,10.60
2023-04-21T06:28:02.095Z,10.70
2023-04-21T06:30:30.121Z,10.80
2023-04-21T06:32:58.213Z,10.80
2023-04-21T06:35:26.348Z,10.90
2023-04-21T06:37:54.408Z,11.00
2023-04-21T06:40:22.430Z,11.20
2023-04-21T06:42:51.814Z,11.30
2023-04-21T06:45:19.823Z,11.40
2023-04-21T06:47:47.869Z,11.50
2023-04-21T06:50:16.363Z,11.50
2023-04-21T06:52:44.399Z,11.50
2023-04-21T06:55:12.635Z,11.70
2023-04-21T06:57:40.692Z,11.80
2023-04-21T07:00:11.650Z,12.00
2023-04-21T07:02:39.796Z,12.20
2023-04-21T07:05:08.478Z,12.30
2023-04-21T07:07:36.587Z,12.40
2023-04-21T07:10:05.007Z,12.60
2023-04-21T07:12:33.040Z,12.80
2023-04-21T07:15:01.105Z,12.80
2023-04-21T07:17:30.549Z,12.90
2023-04-21T07:19:58.583Z,13.00
2023-04-21T07:22:26.697Z,13.10
2023-04-21T07:24:54.720Z,13.20
2023-04-21T07:27:22.747Z,13.30
2023-04-21T07:29:51.017Z,13.30
2023-04-21T07:32:19.039Z,13.30
2023-04-21T07:34:48.431Z,13.40
2023-04-21T07:37:16.543Z,13.60
2023-04-21T07:39:44.601Z,13.70
2023-04-21T07:42:12.632Z,13.80
2023-04-21T07:44:40.848Z,13.80
2023-04-21T07:47:08.893Z,13.90
2023-04-21T07:49:36.962Z,14.10
2023-04-21T07:52:06.534Z,14.30
2023-04-21T07:54:34.567Z,14.70
2023-04-21T07:57:02.761Z,15.00
2023-04-21T07:59:31.261Z,14.90
2023-04-21T08:01:59.486Z,15.10
2023-04-21T08:04:27.635Z,15.20
2023-04-21T08:06:55.922Z,15.30
2023-04-21T08:09:25.443Z,15.10
2023-04-21T08:11:53.953Z,15.10
2023-04-21T08:14:23.409Z,15.00
2023-04-21T08:16:51.501Z,15.00
2023-04-21T08:19:20.013Z,15.30
2023-04-21T08:21:48.645Z,15.40
2023-04-21T08:24:16.764Z,15.50
2023-04-21T08:26:46.200Z,15.60
2023-04-21T08:29:14.372Z,15.40
2023-04-21T08:31:42.599Z,15.60
2023-04-21T08:34:10.991Z,16.00
2023-04-21T08:36:39.181Z,16.10
2023-04-21T08:39:07.217Z,16.10
2023-04-21T08:41:35.637Z,16.40
2023-04-21T08:44:05.987Z,16.50
2023-04-21T08:46:35.005Z,16.40
2023-04-21T08:49:03.920Z,16.30
2023-04-21T08:51:32.352Z,16.50
2023-04-21T08:54:00.432Z,16.40
2023-04-21T08:56:28.675Z,16.40
2023-04-21T08:58:57.071Z,16.50
2023-04-21T09:01:26.578Z,16.80
2023-04-21T09:03:54.801Z,17.00
2023-04-21T09:06:23.519Z,17.30
2023-04-21T09:08:56.561Z,17.30
2023-04-21T09:11:25.604Z,17.30
2023-04-21T09:13:58.754Z,17.10
2023-04-21T09:16:33.166Z,17.10
2023-04-21T09:19:01.805Z,17.50
2023-04-21T09:21:32.430Z,17.80
2023-04-21T09:24:06.673Z,17.70
2023-04-21T09:26:37.051Z,17.70
2023-04-21T09:29:07.563Z,17.90
2023-04-21T09:31:37.541Z,18.10
2023-04-21T09:34:19.627Z,18.40
2023-04-21T09:36:48.233Z,18.20
2023-04-21T09:41:47.339Z,18.50
2023-04-21T09:44:17.646Z,18.50
2023-04-21T09:46:51.183Z,18.50
2023-04-21T09:49:19.678Z,19.10
2023-04-21T09:56:55.002Z,19.20
2023-04-21T09:59:27.635Z,18.90
2023-04-21T10:01:58.753Z,19.20
2023-04-21T10:04:28.942Z,19.20
2023-04-21T10:06:57.570Z,19.50
2023-04-21T10:09:28.044Z,19.50
2023-04-21T10:11:56.709Z,19.90
2023-04-21T10:14:26.798Z,20.30
2023-04-21T10:17:04.643Z,20.30
2023-04-21T10:19:36.268Z,20.10
2023-04-21T10:22:04.305Z,20.30
2023-04-21T10:24:32.584Z,20.40
2023-04-21T10:27:02.100Z,20.20
2023-04-21T10:29:43.754Z,20.30
2023-04-21T10:32:32.865Z,20.30
2023-04-21T10:35:00.921Z,20.20
2023-04-21T10:37:32.652Z,20.20
2023-04-21T10:40:01.711Z,20.20
2023-04-21T10:42:37.594Z,20.20
2023-04-21T10:45:12.759Z,20.40
2023-04-21T10:47:45.186Z,20.40
2023-04-21T10:50:15.749Z,20.30
2023-04-21T10:52:57.618Z,20.60
2023-04-21T10:55:29.047Z,20.70
2023-04-21T10:57:59.065Z,20.60
2023-04-21T11:00:27.300Z,20.40
2023-04-21T11:03:00.697Z,20.50
2023-04-21T11:05:36.049Z,20.10
2023-04-21T11:08:14.725Z,20.40
2023-04-21T11:10:48.979Z,20.60
2023-04-21T11:13:17.073Z,20.50
2023-04-21T11:16:06.910Z,20.70
2023-04-21T11:18:46.347Z,20.60
2023-04-21T11:21:17.990Z,20.80
2023-04-21T11:23:54.123Z,21.00
2023-04-21T11:26:32.691Z,21.20
2023-04-21T11:29:04.508Z,21.10
2023-04-21T11:31:32.690Z,21.30
2023-04-21T11:34:05.136Z,21.30
2023-04-21T11:36:34.136Z,21.10
2023-04-21T11:39:08.113Z,21.20
2023-04-21T11:41:36.686Z,21.40
2023-04-21T11:44:04.822Z,21.30
2023-04-21T11:46:33.459Z,21.30
2023-04-21T11:49:04.622Z,21.20
2023-04-21T11:51:37.140Z,21.20
2023-04-21T11:54:09.442Z,21.10
2023-04-21T11:56:38.922Z,21.10
2023-04-21T11:59:10.857Z,20.80
2023-04-21T12:01:44.529Z,20.40
2023-04-21T12:04:18.013Z,20.40
2023-04-21T12:06:47.458Z,20.30
2023-04-21T12:09:19.995Z,20.30
2023-04-21T12:11:50.147Z,20.40
2023-04-21T12:14:21.885Z,20.40
2023-04-21T12:16:51.313Z,20.50
2023-04-21T12:19:36.992Z,20.60
2023-04-21T12:22:09.403Z,20.60
2023-04-21T12:24:37.609Z,20.60
2023-04-21T12:27:06.665Z,20.60
2023-04-21T12:29:35.650Z,20.50
2023-04-21T12:32:03.960Z,20.60
2023-04-21T12:34:33.595Z,20.60
2023-04-21T12:37:01.950Z,20.50
2023-04-21T12:39:30.489Z,20.60
2023-04-21T12:41:58.827Z,20.70
2023-04-21T12:44:27.102Z,20.60
2023-04-21T12:46:55.443Z,20.50
2023-04-21T12:49:23.457Z,20.40
2023-04-21T12:51:52.968Z,20.30
2023-04-21T12:54:21.040Z,20.30
2023-04-21T12:56:49.117Z,20.30
2023-04-21T12:59:17.161Z,20.30
2023-04-21T13:01:45.278Z,20.40
2023-04-21T13:04:13.603Z,20.40
2023-04-21T13:06:41.744Z,20.50
2023-04-21T13:09:11.428Z,20.50
2023-04-21T13:11:39.862Z,20.50
2023-04-21T13:14:08.319Z,20.40
2023-04-21T13:16:36.456Z,20.40
2023-04-21T13:19:05.187Z,20.50
2023-04-21T13:21:33.270Z,20.60
2023-04-21T13:24:02.246Z,20.40
2023-04-21T13:26:35.075Z,20.30
2023-04-21T13:29:03.705Z,20.40
2023-04-21T13:31:32.460Z,20.20
2023-04-21T13:34:01.165Z,20.10
2023-04-21T13:36:29.272Z,20.10
2023-04-21T13:38:57.324Z,20.10
2023-04-21T13:41:25.351Z,20.10
2023-04-21T13:43:54.733Z,20.10
2023-04-21T13:46:22.901Z,20.10
2023-04-21T13:48:51.709Z,20.00
2023-04-21T13:51:20.094Z,20.00
2023-04-21T13:53:48.146Z,19.90
2023-04-21T13:56:16.314Z,20.00
2023-04-21T13:58:44.482Z,20.00
2023-04-21T14:01:15.470Z,20.20
2023-04-21T14:03:43.706Z,20.20
2023-04-21T14:06:11.946Z,20.00
2023-04-21T14:08:40.370Z,19.90
2023-04-21T14:11:08.411Z,19.90
2023-04-21T14:13:42.119Z,19.90
2023-04-21T14:16:17.579Z,19.80
2023-04-21T14:18:46.571Z,19.80
2023-04-21T14:21:14.687Z,19.80
2023-04-21T14:23:42.805Z,19.90
2023-04-21T14:26:11.885Z,19.90
2023-04-21T14:28:40.639Z,19.90
2023-04-21T14:31:09.021Z,19.90
2023-04-21T14:33:38.743Z,19.80
2023-04-21T14:36:07.496Z,19.60
2023-04-21T14:38:35.868Z,19.60
2023-04-21T14:41:04.883Z,19.60
2023-04-21T14:43:32.957Z,19.60
2023-04-21T14:46:01.654Z,19.60
2023-04-21T14:48:29.812Z,19.60
2023-04-21T14:50:59.473Z,19.70
2023-04-21T14:53:27.630Z,19.70
2023-04-21T14:55:55.651Z,19.60
2023-04-21T14:58:23.803Z,19.60
2023-04-21T15:00:52.024Z,19.50
2023-04-21T15:03:20.390Z,19.50
2023-04-21T15:05:48.678Z,19.40
2023-04-21T15:08:18.335Z,19.40
2023-04-21T15:10:47.566Z,19.50
2023-04-21T15:13:15.680Z,19.40
2023-04-21T15:15:43.868Z,19.40
2023-04-21T15:18:11.938Z,19.30
2023-04-21T15:20:45.303Z,19.30
2023-04-21T15:23:13.927Z,19.30
2023-04-21T15:25:43.485Z,19.10
2023-04-21T15:28:12.972Z,19.10
2023-04-21T15:30:41.123Z,19.10
2023-04-21T15:33:09.284Z,19.20
2023-04-21T15:35:37.296Z,19.10
2023-04-21T15:38:06.016Z,19.10
2023-04-21T15:40:34.105Z,19.20
2023-04-21T15:43:03.544Z,19.10
2023-04-21T15:45:31.541Z,19.20
2023-04-21T15:48:00.073Z,19.20
2023-04-21T15:50:30.007Z,19.20
2023-04-21T15:52:58.026Z,19.10
2023-04-21T15:55:27.842Z,19.00
2023-04-21T15:57:55.948Z,18.90
2023-04-21T16:00:25.632Z,19.00
2023-04-21T16:02:53.928Z,19.00
2023-04-21T16:05:24.480Z,18.90
2023-04-21T16:07:54.442Z,18.90
2023-04-21T16:10:22.476Z,18.80
2023-04-21T16:12:51.094Z,18.90
2023-04-21T16:15:24.306Z,18.90
2023-04-21T16:17:54.726Z,19.00
2023-04-21T16:20:22.902Z,18.90
2023-04-21T16:22:51.215Z,18.90
2023-04-21T16:25:20.055Z,18.90
2023-04-21T16:27:48.245Z,18.90
2023-04-21T16:30:16.558Z,18.80
2023-04-21T16:32:44.676Z,18.70
2023-04-21T16:35:14.053Z,18.70
2023-04-21T16:37:42.745Z,18.70
2023-04-21T16:40:12.153Z,18.60
2023-04-21T16:42:40.577Z,18.60
2023-04-21T16:45:09.515Z,18.50
2023-04-21T16:47:41.696Z,18.60
2023-04-21T16:50:10.836Z,18.60
2023-04-21T16:52:40.453Z,18.60
2023-04-21T16:55:09.415Z,18.60
2023-04-21T16:57:37.536Z,18.50
2023-04-21T17:00:07.851Z,18.50
2023-04-21T17:02:36.127Z,18.40
2023-04-21T17:05:04.463Z,18.40
2023-04-21T17:07:32.598Z,18.30
2023-04-21T17:10:02.223Z,18.40
2023-04-21T17:12:30.433Z,18.40
2023-04-21T17:14:58.983Z,18.30
2023-04-21T17:17:27.168Z,18.20
2023-04-21T17:19:55.238Z,18.20
2023-04-21T17:22:23.252Z,18.20
2023-04-21T17:24:53.170Z,18.20
2023-04-21T17:27:23.356Z,18.20
2023-04-21T17:29:51.515Z,18.20
2023-04-21T17:32:19.997Z,18.10
2023-04-21T17:34:48.166Z,18.10
2023-04-21T17:37:16.544Z,18.10
2023-04-21T17:39:44.580Z,18.00
2023-04-21T17:42:12.670Z,17.90
2023-04-21T17:44:42.125Z,17.70
2023-04-21T17:47:10.440Z,17.60
2023-04-21T17:49:38.616Z,17.50
2023-04-21T17:52:07.105Z,17.40
2023-04-21T17:54:35.213Z,17.30
2023-04-21T17:57:03.467Z,17.20
2023-04-21T17:59:31.761Z,17.10
2023-04-21T18:02:01.200Z,17.00
2023-04-21T18:04:30.768Z,16.90
2023-04-21T18:06:59.576Z,16.90
2023-04-21T18:09:27.935Z,16.90
2023-04-21T18:11:56.337Z,16.80
2023-04-21T18:14:24.830Z,16.70
2023-04-21T18:16:52.861Z,16.50
2023-04-21T18:19:22.321Z,16.50
2023-04-21T18:21:50.483Z,16.40
2023-04-21T18:24:18.695Z,16.30
2023-04-21T18:26:46.988Z,16.20
2023-04-21T18:29:17.615Z,16.10
2023-04-21T18:31:46.124Z,16.00
2023-04-21T18:34:15.108Z,16.00
2023-04-21T18:36:44.485Z,15.90
2023-04-21T18:39:12.743Z,15.80
2023-04-21T18:41:40.949Z,15.80
2023-04-21T18:44:09.024Z,15.80
2023-04-21T18:46:37.093Z,15.60
2023-04-21T18:49:05.925Z,15.60
2023-04-21T18:51:34.429Z,15.50
2023-04-21T18:54:04.904Z,15.40
2023-04-21T18:56:33.560Z,15.40
2023-04-21T18:59:01.913Z,15.30
2023-04-21T19:01:30.150Z,15.30
2023-04-21T19:03:59.728Z,15.20
2023-04-21T19:06:29.212Z,15.20
2023-04-21T19:08:58.131Z,15.20
2023-04-21T19:11:27.649Z,15.10
2023-04-21T19:13:55.739Z,15.00
2023-04-21T19:16:23.882Z,14.90
2023-04-21T19:18:52.226Z,14.90
2023-04-21T19:21:20.313Z,14.90
2023-04-21T19:23:48.617Z,14.80
2023-04-21T19:26:18.218Z,14.70
2023-04-21T19:28:47.628Z,14.70
2023-04-21T19:31:19.086Z,14.60
2023-04-21T19:33:47.765Z,14.60
2023-04-21T19:36:15.876Z,14.50
2023-04-21T19:38:44.451Z,14.50
2023-04-21T19:41:13.196Z,14.40
2023-04-21T19:43:41.211Z,14.30
2023-04-21T19:46:11.022Z,14.30
2023-04-21T19:48:41.328Z,14.30
2023-04-21T19:51:10.745Z,14.20
2023-04-21T19:53:38.822Z,14.20
2023-04-21T19:56:07.235Z,14.10
2023-04-21T19:58:40.671Z,14.10
2023-04-21T20:01:10.604Z,14.10
2023-04-21T20:03:38.901Z,14.00
2023-04-21T20:06:07.467Z,13.90
2023-04-21T20:08:36.587Z,13.90
2023-04-21T20:11:04.692Z,13.80
2023-04-21T20:13:32.742Z,13.80
2023-04-21T20:16:00.989Z,13.70
2023-04-21T20:18:31.808Z,13.70
2023-04-21T20:21:00.004Z,13.70
2023-04-21T20:23:29.026Z,13.60
2023-04-21T20:25:58.262Z,13.50
2023-04-21T20:28:27.556Z,13.50
2023-04-21T20:30:56.793Z,13.50
2023-04-21T20:33:24.812Z,13.40
2023-04-21T20:35:55.206Z,13.40
2023-04-21T20:38:24.584Z,13.40
2023-04-21T20:40:53.156Z,13.30
2023-04-21T20:43:21.367Z,13.20
2023-04-21T20:45:50.305Z,13.30
2023-04-21T20:48:18.992Z,13.30
2023-04-21T20:50:49.833Z,13.20
2023-04-21T20:53:20.956Z,13.20
2023-04-21T20:55:49.100Z,13.20
2023-04-21T20:58:17.133Z,13.20
2023-04-21T21:00:45.399Z,13.20
2023-04-21T21:03:13.942Z,13.20
2023-04-21T21:05:42.231Z,13.20
2023-04-21T21:08:10.250Z,13.10
2023-04-21T21:10:39.707Z,13.00
2023-04-21T21:13:07.788Z,13.00
2023-04-21T21:15:36.108Z,13.00
2023-04-21T21:18:04.841Z,12.90
2023-04-21T21:20:32.933Z,12.90
2023-04-21T21:23:00.948Z,12.90
2023-04-21T21:25:29.026Z,12.90
2023-04-21T21:27:58.398Z,12.80
2023-04-21T21:30:26.448Z,12.80
2023-04-21T21:32:55.285Z,12.80
2023-04-21T21:35:23.698Z,12.80
2023-04-21T21:37:51.799Z,12.80
2023-04-21T21:40:19.940Z,12.80
2023-04-21T21:42:47.959Z,12.80
2023-04-21T21:45:18.313Z,12.80
2023-04-21T21:47:47.211Z,12.80
2023-04-21T21:50:15.854Z,12.80
2023-04-21T21:52:44.325Z,12.80
2023-04-21T21:55:12.467Z,12.80
2023-04-21T21:57:40.588Z,12.80
2023-04-21T22:00:13.959Z,12.80
2023-04-21T22:02:44.149Z,12.70
2023-04-21T22:05:13.865Z,12.70
2023-04-21T22:07:43.082Z,12.70
2023-04-21T22:10:11.996Z,12.70
2023-04-21T22:12:41.139Z,12.70
2023-04-21T22:15:10.368Z,12.60
2023-04-21T22:17:38.734Z,12.60
2023-04-21T22:20:09.408Z,12.60
2023-04-21T22:22:37.545Z,12.60
2023-04-21T22:25:06.181Z,12.50
2023-04-21T22:27:34.240Z,12.50
2023-04-21T22:30:03.584Z,12.50
2023-04-21T22:32:32.417Z,12.40
2023-04-21T22:35:00.624Z,12.40
2023-04-21T22:37:30.187Z,12.40
2023-04-21T22:39:58.818Z,12.40
2023-04-21T22:42:27.043Z,12.30
2023-04-21T22:44:55.081Z,12.30
2023-04-21T22:47:23.673Z,12.30
2023-04-21T22:49:53.354Z,12.30
2023-04-21T22:52:21.467Z,12.30
2023-04-21T22:54:50.877Z,12.30
2023-04-21T22:57:19.119Z,12.20
2023-04-21T22:59:47.172Z,12.10
2023-04-21T23:02:15.489Z,12.10
2023-04-21T23:04:43.599Z,12.10
2023-04-21T23:07:11.645Z,12.10
2023-04-21T23:09:39.953Z,12.10
2023-04-21T23:12:09.814Z,12.00
2023-04-21T23:14:37.908Z,12.00
2023-04-21T23:17:05.999Z,12.00
2023-04-21T23:19:34.015Z,12.00
2023-04-21T23:22:02.160Z,11.90
2023-04-21T23:24:30.190Z,11.90
2023-04-21T23:26:58.193Z,11.90
2023-04-21T23:29:27.616Z,11.90
2023-04-21T23:31:55.656Z,11.80
2023-04-21T23:34:23.684Z,11.80
2023-04-21T23:36:51.740Z,11.80
2023-04-21T23:39:21.540Z,11.80
2023-04-21T23:41:49.769Z,11.80
2023-04-21T23:44:17.874Z,11.70
2023-04-21T23:46:47.224Z,11.70
2023-04-21T23:49:15.265Z,11.70
2023-04-21T23:51:43.324Z,11.70
2023-04-21T23:54:11.438Z,11.60
2023-04-21T23:56:39.445Z,11.60
2023-04-21T23:59:07.513Z,11.60
